createdAt,value
2023-01-02T00:01:04.998Z,102145.50
2023-01-02T00:03:32.298Z,102141.59
2023-01-02T00:06:05.594Z,102148.38
2023-01-02T00:08:32.669Z,102155.75
2023-01-02T00:10:59.774Z,102149.56
2023-01-02T00:13:26.812Z,102143.44
2023-01-02T00:15:53.936Z,102144.84
2023-01-02T00:18:21.252Z,102142.94
2023-01-02T00:20:48.166Z,102142.44
2023-01-02T00:23:15.096Z,102130.53
2023-01-02T00:25:41.970Z,102126.47
2023-01-02T00:28:09.079Z,102133.56
2023-01-02T00:30:39.135Z,102130.75
2023-01-02T00:33:06.887Z,102125.31
2023-01-02T00:35:34.242Z,102141.59
2023-01-02T00:38:01.126Z,102135.41
2023-01-02T00:40:28.116Z,102132.53
2023-01-02T00:42:55.051Z,102125.44
2023-01-02T00:45:21.934Z,102125.75
2023-01-02T00:47:48.777Z,102118.84
2023-01-02T00:50:15.814Z,102120.03
2023-01-02T00:52:42.923Z,102120.09
2023-01-02T00:55:09.960Z,102109.22
2023-01-02T00:57:37.264Z,102112.25
2023-01-02T01:00:05.853Z,102118.28
2023-01-02T01:02:33.384Z,102117.78
2023-01-02T01:05:00.322Z,102112.00
2023-01-02T01:07:29.410Z,102108.50
2023-01-02T01:09:56.274Z,102108.66
2023-01-02T01:12:23.250Z,102100.00
2023-01-02T01:14:50.203Z,102098.00
2023-01-02T01:17:17.130Z,102102.75
2023-01-02T01:19:44.005Z,102099.34
2023-01-02T01:22:12.089Z,102090.88
2023-01-02T01:24:39.076Z,102094.25
2023-01-02T01:27:06.031Z,102094.75
2023-01-02T01:29:32.970Z,102098.28
2023-01-02T01:31:59.821Z,102093.09
2023-01-02T01:34:27.744Z,102091.09
2023-01-02T01:36:54.684Z,102086.28
2023-01-02T01:39:21.643Z,102094.72
2023-01-02T01:41:48.606Z,102088.75
2023-01-02T01:44:40.065Z,102090.84
2023-01-02T01:47:17.895Z,102081.44
2023-01-02T01:49:46.883Z,102080.41
2023-01-02T01:52:20.755Z,102067.44
2023-01-02T01:55:14.671Z,102067.72
2023-01-02T01:57:49.222Z,102072.53
2023-01-02T02:00:16.515Z,102070.25
2023-01-02T02:02:48.522Z,102070.84
2023-01-02T02:05:22.056Z,102061.69
2023-01-02T02:08:06.839Z,102061.56
2023-01-02T02:10:35.024Z,102055.81
2023-01-02T02:13:01.926Z,102055.81
2023-01-02T02:15:40.866Z,102052.41
2023-01-02T02:18:25.627Z,102045.75
2023-01-02T02:20:58.440Z,102051.06
2023-01-02T02:23:48.265Z,102047.75
2023-01-02T02:26:44.573Z,102044.06
2023-01-02T02:29:30.022Z,102051.91
2023-01-02T02:32:13.482Z,102049.38
2023-01-02T02:35:06.265Z,102050.13
2023-01-02T02:37:45.121Z,102053.91
2023-01-02T02:40:33.381Z,102049.06
2023-01-02T02:43:27.735Z,102046.56
2023-01-02T02:46:24.874Z,102053.00
2023-01-02T02:49:04.202Z,102052.19
2023-01-02T02:51:31.053Z,102058.09
2023-01-02T02:54:09.189Z,102052.56
2023-01-02T02:56:36.930Z,102050.91
2023-01-02T02:59:05.238Z,102053.13
2023-01-02T03:01:32.982Z,102049.69
2023-01-02T03:03:59.900Z,102055.72
2023-01-02T03:06:42.220Z,102066.25
2023-01-02T03:09:24.399Z,102062.75
2023-01-02T03:11:58.578Z,102058.84
2023-01-02T03:14:28.131Z,102063.41
2023-01-02T03:17:02.871Z,102066.34
2023-01-02T03:19:41.986Z,102075.72
2023-01-02T03:22:20.132Z,102065.22
2023-01-02T03:24:51.406Z,102064.19
2023-01-02T03:27:24.941Z,102073.84
2023-01-02T03:30:03.110Z,102074.81
2023-01-02T03:32:33.981Z,102081.38
2023-01-02T03:35:06.512Z,102075.28
2023-01-02T03:37:37.467Z,102068.88
2023-01-02T03:40:12.200Z,102068.75
2023-01-02T03:42:50.222Z,102072.78
2023-01-02T03:45:23.286Z,102062.34
2023-01-02T03:48:08.662Z,102063.34
2023-01-02T03:50:49.912Z,102064.16
2023-01-02T03:53:17.126Z,102062.38
2023-01-02T03:55:55.737Z,102066.28
2023-01-02T03:59:12.376Z,102069.56
2023-01-02T04:01:49.911Z,102065.97
2023-01-02T04:04:51.228Z,102074.13
2023-01-02T04:07:31.576Z,102069.81
2023-01-02T04:10:00.756Z,102073.88
2023-01-02T04:12:31.766Z,102074.16
2023-01-02T04:15:10.980Z,102074.59
2023-01-02T04:17:51.404Z,102076.44
2023-01-02T04:20:23.468Z,102076.34
2023-01-02T04:22:58.387Z,102082.88
2023-01-02T04:25:32.881Z,102076.16
2023-01-02T04:28:10.269Z,102077.00
2023-01-02T04:30:42.912Z,102080.56
2023-01-02T04:33:12.002Z,102083.66
2023-01-02T04:35:38.927Z,102087.47
2023-01-02T04:38:12.972Z,102075.94
2023-01-02T04:40:40.179Z,102087.72
2023-01-02T04:43:20.464Z,102083.50
2023-01-02T04:45:48.701Z,102089.13
2023-01-02T04:48:16.339Z,102080.53
2023-01-02T04:50:44.093Z,102081.50
2023-01-02T04:53:11.398Z,102085.84
2023-01-02T04:55:39.010Z,102089.06
2023-01-02T04:58:06.083Z,102083.25
2023-01-02T05:00:33.768Z,102090.28
2023-01-02T05:03:04.126Z,102084.97
2023-01-02T05:05:31.610Z,102086.59
2023-01-02T05:07:59.773Z,102078.91
2023-01-02T05:10:26.662Z,102092.44
2023-01-02T05:12:53.591Z,102084.56
2023-01-02T05:15:21.610Z,102087.97
2023-01-02T05:17:48.491Z,102093.03
2023-01-02T05:20:15.446Z,102088.03
2023-01-02T05:23:01.979Z,102093.88
2023-01-02T05:25:32.587Z,102089.63
2023-01-02T05:27:59.719Z,102093.44
2023-01-02T05:30:26.826Z,102092.78
2023-01-02T05:32:53.991Z,102103.19
2023-01-02T05:35:22.163Z,102098.78
2023-01-02T05:37:50.508Z,102106.81
2023-01-02T05:40:17.474Z,102096.06
2023-01-02T05:42:44.391Z,102097.56
2023-01-02T05:45:11.530Z,102099.00
2023-01-02T05:47:38.401Z,102102.34
2023-01-02T05:50:05.892Z,102099.72
2023-01-02T05:52:32.780Z,102101.41
2023-01-02T05:55:00.477Z,102101.09
2023-01-02T05:57:27.360Z,102090.72
2023-01-02T05:59:54.273Z,102093.66
2023-01-02T06:02:21.155Z,102099.47
2023-01-02T06:04:48.329Z,102101.84
2023-01-02T06:07:15.377Z,102105.41
2023-01-02T06:09:42.448Z,102116.88
2023-01-02T06:12:09.365Z,102102.84
2023-01-02T06:14:36.297Z,102104.53
2023-01-02T06:17:03.230Z,102109.00
2023-01-02T06:19:30.154Z,102114.13
2023-01-02T06:21:57.060Z,102109.31
2023-01-02T06:24:23.972Z,102117.06
2023-01-02T06:26:50.882Z,102110.84
2023-01-02T06:29:17.847Z,102107.59
2023-01-02T06:31:50.811Z,102105.00
2023-01-02T06:34:17.870Z,102105.00
2023-01-02T06:36:44.896Z,102107.53
2023-01-02T06:39:12.016Z,102112.66
2023-01-02T06:41:38.939Z,102105.94
2023-01-02T06:44:05.925Z,102114.66
2023-01-02T06:46:32.822Z,102113.00
2023-01-02T06:48:59.733Z,102113.34
2023-01-02T06:51:26.644Z,102111.94
2023-01-02T06:53:53.627Z,102112.69
2023-01-02T06:56:21.611Z,102117.44
2023-01-02T06:58:48.808Z,102116.41
2023-01-02T07:01:23.320Z,102116.81
2023-01-02T07:03:50.764Z,102116.63
2023-01-02T07:06:22.338Z,102117.81
2023-01-02T07:08:50.326Z,102116.28
2023-01-02T07:11:22.642Z,102125.78
2023-01-02T07:13:52.040Z,102113.38
2023-01-02T07:16:20.962Z,102121.94
2023-01-02T07:18:48.089Z,102116.03
2023-01-02T07:21:16.513Z,102118.75
2023-01-02T07:23:43.457Z,102129.16
2023-01-02T07:26:10.801Z,102121.25
2023-01-02T07:28:38.153Z,102122.03
2023-01-02T07:31:12.207Z,102126.66
2023-01-02T07:33:39.163Z,102121.84
2023-01-02T07:36:08.657Z,102114.63
2023-01-02T07:38:38.295Z,102119.06
2023-01-02T07:41:13.259Z,102111.81
2023-01-02T07:43:40.261Z,102120.31
2023-01-02T07:46:07.278Z,102119.66
2023-01-02T07:48:34.315Z,102119.44
2023-01-02T07:51:02.812Z,102119.09
2023-01-02T07:53:30.095Z,102128.22
2023-01-02T07:55:58.509Z,102122.44
2023-01-02T07:58:25.572Z,102123.78
2023-01-02T08:00:58.383Z,102119.69
2023-01-02T08:03:28.369Z,102112.38
2023-01-02T08:05:55.311Z,102125.22
2023-01-02T08:08:22.191Z,102110.19
2023-01-02T08:10:49.022Z,102114.69
2023-01-02T08:13:15.891Z,102117.25
2023-01-02T08:15:42.837Z,102116.88
2023-01-02T08:18:09.802Z,102117.69
2023-01-02T08:20:36.707Z,102111.16
2023-01-02T08:23:03.671Z,102116.94
2023-01-02T08:25:30.532Z,102119.84
2023-01-02T08:27:57.411Z,102116.94
2023-01-02T08:30:24.323Z,102116.97
2023-01-02T08:32:51.169Z,102107.13
2023-01-02T08:35:18.180Z,102112.69
2023-01-02T08:37:50.273Z,102106.34
2023-01-02T08:40:18.330Z,102104.03
2023-01-02T08:42:46.425Z,102103.66
2023-01-02T08:45:13.355Z,102092.69
2023-01-02T08:47:40.212Z,102086.66
2023-01-02T08:50:07.349Z,102093.09
2023-01-02T08:52:34.619Z,102089.69
2023-01-02T08:55:04.002Z,102083.63
2023-01-02T08:57:32.934Z,102079.56
2023-01-02T08:59:59.835Z,102068.50
2023-01-02T09:02:27.035Z,102068.25
2023-01-02T09:04:54.188Z,102074.00
2023-01-02T09:07:21.081Z,102060.84
2023-01-02T09:09:47.990Z,102064.34
2023-01-02T09:12:14.905Z,102067.19
2023-01-02T09:14:41.749Z,102061.34
2023-01-02T09:17:09.235Z,102054.13
2023-01-02T09:19:36.336Z,102048.44
2023-01-02T09:22:04.297Z,102051.63
2023-01-02T09:24:31.119Z,102046.03
2023-01-02T09:26:58.105Z,102031.06
2023-01-02T09:29:25.028Z,102032.66
2023-01-02T09:31:51.982Z,102030.25
2023-01-02T09:34:18.943Z,102031.06
2023-01-02T09:36:47.687Z,102018.03
2023-01-02T09:39:14.720Z,102019.63
2023-01-02T09:41:47.718Z,102020.44
2023-01-02T09:44:29.368Z,102011.81
2023-01-02T09:47:13.661Z,102013.19
2023-01-02T09:49:44.260Z,102005.94
2023-01-02T09:52:28.857Z,102010.47
2023-01-02T09:54:55.815Z,101999.25
2023-01-02T09:57:25.437Z,102000.91
2023-01-02T10:00:13.001Z,101994.63
2023-01-02T10:03:05.979Z,101994.09
2023-01-02T10:05:57.904Z,101992.59
2023-01-02T10:08:33.911Z,101996.81
2023-01-02T10:11:38.090Z,101991.44
2023-01-02T10:14:49.223Z,101988.97
2023-01-02T10:17:17.533Z,101982.41
2023-01-02T10:20:05.149Z,101984.34
2023-01-02T10:22:37.996Z,101974.84
2023-01-02T10:25:26.603Z,101968.47
2023-01-02T10:28:16.426Z,101970.19
2023-01-02T10:31:06.933Z,101964.84
2023-01-02T10:33:52.834Z,101957.81
2023-01-02T10:36:32.019Z,101956.94
2023-01-02T10:39:05.599Z,101949.53
2023-01-02T10:41:33.300Z,101951.53
2023-01-02T10:44:05.744Z,101945.03
2023-01-02T10:46:35.945Z,101946.22
2023-01-02T10:49:09.233Z,101937.72
2023-01-02T10:51:40.187Z,101937.97
2023-01-02T10:54:09.551Z,101934.31
2023-01-02T10:56:39.147Z,101925.38
2023-01-02T10:59:22.109Z,101913.16
2023-01-02T11:01:57.013Z,101921.06
2023-01-02T11:04:26.680Z,101923.47
2023-01-02T11:07:02.544Z,101917.06
2023-01-02T11:09:31.937Z,101912.59
2023-01-02T11:12:08.835Z,101914.00
2023-01-02T11:14:37.087Z,101915.69
2023-01-02T11:17:20.163Z,101905.31
2023-01-02T11:19:53.489Z,101903.94
2023-01-02T11:22:23.281Z,101895.69
2023-01-02T11:25:00.164Z,101895.09
2023-01-02T11:27:41.773Z,101900.91
2023-01-02T11:30:23.500Z,101895.53
2023-01-02T11:33:03.203Z,101883.44
2023-01-02T11:35:39.013Z,101887.75
2023-01-02T11:38:13.862Z,101880.38
2023-01-02T11:40:52.514Z,101875.59
2023-01-02T11:43:41.961Z,101884.91
2023-01-02T11:46:23.589Z,101872.97
2023-01-02T11:48:53.750Z,101879.16
2023-01-02T11:51:21.899Z,101871.75
2023-01-02T11:53:52.951Z,101875.97
2023-01-02T11:56:31.071Z,101878.16
2023-01-02T11:59:16.749Z,101868.44
2023-01-02T12:01:46.788Z,101864.63
2023-01-02T12:04:14.215Z,101861.81
2023-01-02T12:07:17.056Z,101863.78
2023-01-02T12:09:58.961Z,101863.13
2023-01-02T12:12:48.553Z,101858.69
2023-01-02T12:15:18.188Z,101861.50
2023-01-02T12:18:02.143Z,101856.38
2023-01-02T12:20:53.009Z,101852.38
2023-01-02T12:23:44.355Z,101857.78
2023-01-02T12:26:22.014Z,101855.09
2023-01-02T12:29:03.783Z,101850.34
2023-01-02T12:31:42.258Z,101856.09
2023-01-02T12:34:30.250Z,101851.47
2023-01-02T12:37:20.324Z,101859.78
2023-01-02T12:40:17.864Z,101856.88
2023-01-02T12:43:17.156Z,101862.31
2023-01-02T12:46:05.166Z,101857.66
2023-01-02T12:48:52.333Z,101861.53
2023-01-02T12:51:43.812Z,101859.97
2023-01-02T12:54:20.878Z,101861.44
2023-01-02T12:57:09.120Z,101857.41
2023-01-02T13:00:02.950Z,101863.00
2023-01-02T13:02:57.670Z,101861.84
2023-01-02T13:05:48.999Z,101867.06
2023-01-02T13:08:26.967Z,101860.59
2023-01-02T13:10:56.294Z,101860.84
2023-01-02T13:13:30.723Z,101863.28
2023-01-02T13:16:03.773Z,101865.31
2023-01-02T13:19:00.218Z,101863.81
2023-01-02T13:21:52.468Z,101865.56
2023-01-02T13:24:24.162Z,101861.88
2023-01-02T13:26:53.554Z,101871.38
2023-01-02T13:29:26.530Z,101882.00
2023-01-02T13:31:55.186Z,101871.75
2023-01-02T13:34:30.232Z,101872.84
2023-01-02T13:37:06.962Z,101867.47
2023-01-02T13:39:39.610Z,101875.75
2023-01-02T13:42:28.000Z,101871.50
2023-01-02T13:44:58.177Z,101867.97
2023-01-02T13:47:40.501Z,101868.38
2023-01-02T13:50:27.972Z,101866.84
2023-01-02T13:53:10.178Z,101867.00
2023-01-02T13:55:39.905Z,101859.22
2023-01-02T13:58:13.115Z,101864.84
2023-01-02T14:00:43.705Z,101860.75
2023-01-02T14:03:22.031Z,101857.91
2023-01-02T14:05:58.498Z,101858.81
2023-01-02T14:08:30.124Z,101852.22
2023-01-02T14:11:27.574Z,101850.69
2023-01-02T14:13:55.783Z,101847.47
2023-01-02T14:16:22.920Z,101843.72
2023-01-02T14:19:15.442Z,101848.59
2023-01-02T14:21:54.934Z,101848.25
2023-01-02T14:24:51.585Z,101842.59
2023-01-02T14:27:27.665Z,101841.06
2023-01-02T14:30:00.245Z,101846.53
2023-01-02T14:32:42.979Z,101854.63
2023-01-02T14:35:16.052Z,101857.28
2023-01-02T14:37:47.705Z,101856.47
2023-01-02T14:40:18.287Z,101856.50
2023-01-02T14:43:11.314Z,101860.03
2023-01-02T14:45:52.792Z,101855.59
2023-01-02T14:48:30.518Z,101863.53
2023-01-02T14:51:07.162Z,101860.03
2023-01-02T14:53:41.647Z,101857.38
2023-01-02T14:56:14.735Z,101860.88
2023-01-02T14:58:47.367Z,101862.56
2023-01-02T15:01:42.669Z,101863.41
2023-01-02T15:04:40.308Z,101871.41
2023-01-02T15:07:24.423Z,101864.38
2023-01-02T15:10:00.918Z,101867.03
2023-01-02T15:12:58.496Z,101871.50
2023-01-02T15:15:28.266Z,101865.28
2023-01-02T15:18:02.087Z,101872.41
2023-01-02T15:20:31.219Z,101863.53
2023-01-02T15:22:59.142Z,101864.41
2023-01-02T15:25:40.961Z,101865.31
2023-01-02T15:28:28.131Z,101866.16
2023-01-02T15:31:15.526Z,101864.44
2023-01-02T15:33:42.527Z,101866.19
2023-01-02T15:36:16.364Z,101861.78
2023-01-02T15:38:44.342Z,101865.31
2023-01-02T15:41:19.084Z,101863.56
2023-01-02T15:44:05.240Z,101874.13
2023-01-02T15:46:32.427Z,101870.59
2023-01-02T15:49:00.522Z,101867.94
2023-01-02T15:51:41.142Z,101863.50
2023-01-02T15:54:14.722Z,101871.50
2023-01-02T15:56:41.908Z,101872.38
2023-01-02T15:59:34.061Z,101873.28
2023-01-02T16:02:02.797Z,101882.09
2023-01-02T16:04:33.080Z,101877.66
2023-01-02T16:07:14.047Z,101875.91
2023-01-02T16:09:47.186Z,101875.03
2023-01-02T16:12:20.982Z,101874.97
2023-01-02T16:14:50.774Z,101878.56
2023-01-02T16:17:29.835Z,101879.44
2023-01-02T16:20:16.159Z,101880.34
2023-01-02T16:22:52.630Z,101877.66
2023-01-02T16:25:37.117Z,101887.41
2023-01-02T16:28:34.856Z,101879.44
2023-01-02T16:31:15.824Z,101874.13
2023-01-02T16:33:43.603Z,101874.13
2023-01-02T16:36:24.604Z,101878.41
2023-01-02T16:38:56.162Z,101880.19
2023-01-02T16:41:37.086Z,101883.66
2023-01-02T16:44:12.559Z,101872.28
2023-01-02T16:46:44.082Z,101876.69
2023-01-02T16:49:22.489Z,101884.56
2023-01-02T16:51:53.018Z,101894.16
2023-01-02T16:54:20.864Z,101886.19
2023-01-02T16:56:48.901Z,101880.03
2023-01-02T16:59:15.815Z,101885.47
2023-01-02T17:01:42.881Z,101886.34
2023-01-02T17:04:12.736Z,101887.22
2023-01-02T17:06:39.786Z,101884.63
2023-01-02T17:09:06.843Z,101887.25
2023-01-02T17:11:33.845Z,101885.56
2023-01-02T17:14:01.507Z,101884.69
2023-01-02T17:16:28.821Z,101888.22
2023-01-02T17:18:55.771Z,101892.56
2023-01-02T17:21:26.277Z,101894.19
2023-01-02T17:23:57.882Z,101894.13
2023-01-02T17:26:24.833Z,101893.22
2023-01-02T17:28:51.839Z,101892.31
2023-01-02T17:31:22.646Z,101888.75
2023-01-02T17:33:52.620Z,101891.50
2023-01-02T17:36:19.761Z,101889.81
2023-01-02T17:38:46.634Z,101886.28
2023-01-02T17:41:14.029Z,101887.06
2023-01-02T17:44:02.839Z,101888.75
2023-01-02T17:47:04.526Z,101895.75
2023-01-02T17:49:14.837Z,101886.72
2023-01-02T17:51:41.789Z,101889.31
2023-01-02T17:54:09.170Z,101887.59
2023-01-02T17:56:36.216Z,101886.63
2023-01-02T17:59:03.747Z,101887.50
2023-01-02T18:01:30.880Z,101885.06
2023-01-02T18:03:57.898Z,101884.09
2023-01-02T18:06:25.528Z,101888.25
2023-01-02T18:08:54.665Z,101889.97
2023-01-02T18:11:22.575Z,101885.34
2023-01-02T18:13:55.531Z,101880.13
2023-01-02T18:16:33.527Z,101878.59
2023-01-02T18:19:05.111Z,101886.41
2023-01-02T18:21:34.395Z,101887.81
2023-01-02T18:24:06.247Z,101888.09
2023-01-02T18:26:33.392Z,101888.19
2023-01-02T18:29:09.402Z,101885.47
2023-01-02T18:31:44.429Z,101885.63
2023-01-02T18:34:47.238Z,101884.53
2023-01-02T18:37:26.416Z,101879.38
2023-01-02T18:39:55.144Z,101880.34
2023-01-02T18:42:26.945Z,101886.50
2023-01-02T18:44:58.531Z,101881.38
2023-01-02T18:47:35.321Z,101887.59
2023-01-02T18:50:24.212Z,101885.78
2023-01-02T18:52:52.266Z,101876.16
2023-01-02T18:55:29.053Z,101869.84
2023-01-02T18:58:02.025Z,101873.22
2023-01-02T19:00:32.185Z,101861.59
2023-01-02T19:03:08.902Z,101860.13
2023-01-02T19:05:44.181Z,101861.88
2023-01-02T19:08:31.480Z,101857.47
2023-01-02T19:11:19.736Z,101850.47
2023-01-02T19:13:47.461Z,101856.50
2023-01-02T19:16:18.732Z,101856.50
2023-01-02T19:18:54.539Z,101861.78
2023-01-02T19:21:29.078Z,101859.47
2023-01-02T19:24:05.334Z,101858.72
2023-01-02T19:26:32.169Z,101848.56
2023-01-02T19:29:14.046Z,101833.81
2023-01-02T19:31:40.876Z,101847.81
2023-01-02T19:34:35.461Z,101841.91
2023-01-02T19:37:11.503Z,101841.97
2023-01-02T19:39:47.347Z,101834.13
2023-01-02T19:42:21.066Z,101833.06
2023-01-02T19:44:59.474Z,101833.59
2023-01-02T19:47:36.912Z,101834.00
2023-01-02T19:50:06.864Z,101835.69
2023-01-02T19:52:33.754Z,101835.50
2023-01-02T19:55:00.812Z,101833.63
2023-01-02T19:57:27.987Z,101829.25
2023-01-02T19:59:59.191Z,101828.16
2023-01-02T20:02:27.460Z,101822.91
2023-01-02T20:04:55.599Z,101830.03
2023-01-02T20:07:24.690Z,101826.81
2023-01-02T20:09:52.889Z,101822.34
2023-01-02T20:12:30.357Z,101828.38
2023-01-02T20:14:58.596Z,101818.84
2023-01-02T20:17:25.599Z,101826.59
2023-01-02T20:19:52.778Z,101822.78
2023-01-02T20:22:19.650Z,101815.88
2023-01-02T20:24:47.259Z,101806.41
2023-01-02T20:27:15.504Z,101816.91
2023-01-02T20:29:43.316Z,101818.50
2023-01-02T20:32:10.760Z,101812.38
2023-01-02T20:34:38.073Z,101816.59
2023-01-02T20:37:05.560Z,101822.69
2023-01-02T20:39:32.821Z,101823.22
2023-01-02T20:41:59.798Z,101818.69
2023-01-02T20:44:26.709Z,101823.97
2023-01-02T20:46:56.311Z,101814.56
2023-01-02T20:49:25.478Z,101819.16
2023-01-02T20:51:56.126Z,101815.75
2023-01-02T20:54:24.828Z,101819.78
2023-01-02T20:56:52.267Z,101806.88
2023-01-02T20:59:20.271Z,101807.72
2023-01-02T21:01:47.570Z,101809.97
2023-01-02T21:04:18.639Z,101813.31
2023-01-02T21:06:47.648Z,101807.84
2023-01-02T21:09:14.679Z,101800.03
2023-01-02T21:11:41.630Z,101801.03
2023-01-02T21:14:08.633Z,101802.34
2023-01-02T21:16:35.687Z,101804.56
2023-01-02T21:19:02.703Z,101798.44
2023-01-02T21:21:30.840Z,101798.97
2023-01-02T21:23:57.799Z,101797.91
2023-01-02T21:26:24.821Z,101794.88
2023-01-02T21:28:51.892Z,101803.78
2023-01-02T21:31:20.157Z,101800.72
2023-01-02T21:33:47.837Z,101803.50
2023-01-02T21:36:15.932Z,101797.47
2023-01-02T21:38:43.717Z,101796.25
2023-01-02T21:41:29.375Z,101806.88
2023-01-02T21:43:56.341Z,101797.34
2023-01-02T21:46:23.374Z,101790.97
2023-01-02T21:48:50.368Z,101795.06
2023-01-02T21:51:17.379Z,101790.16
2023-01-02T21:53:44.587Z,101792.78
2023-01-02T21:56:11.532Z,101788.22
2023-01-02T21:58:38.456Z,101785.66
2023-01-02T22:01:05.786Z,101789.47
2023-01-02T22:03:32.854Z,101785.69
2023-01-02T22:05:59.920Z,101792.38
2023-01-02T22:08:26.969Z,101788.59
2023-01-02T22:11:13.812Z,101788.66
2023-01-02T22:13:40.890Z,101785.31
2023-01-02T22:16:08.399Z,101791.50
2023-01-02T22:18:38.254Z,101777.47
2023-01-02T22:21:05.665Z,101773.72
2023-01-02T22:23:33.301Z,101780.84
2023-01-02T22:26:00.414Z,101776.75
2023-01-02T22:28:27.315Z,101773.34
2023-01-02T22:30:54.313Z,101775.91
2023-01-02T22:33:21.324Z,101775.06
2023-01-02T22:35:48.539Z,101774.16
2023-01-02T22:38:15.531Z,101773.59
2023-01-02T22:40:42.492Z,101770.25
2023-01-02T22:43:15.668Z,101766.28
2023-01-02T22:45:53.222Z,101757.72
2023-01-02T22:48:25.188Z,101755.28
2023-01-02T22:50:56.499Z,101751.44
2023-01-02T22:53:27.533Z,101756.09
2023-01-02T22:55:55.325Z,101745.81
2023-01-02T22:58:23.005Z,101739.56
2023-01-02T23:01:00.546Z,101745.81
2023-01-02T23:03:34.484Z,101733.91
2023-01-02T23:06:01.375Z,101736.28
2023-01-02T23:08:28.388Z,101727.72
2023-01-02T23:10:55.346Z,101721.16
2023-01-02T23:13:22.378Z,101730.19
2023-01-02T23:16:08.090Z,101732.50
2023-01-02T23:18:56.991Z,101731.38
2023-01-02T23:21:28.757Z,101722.31
2023-01-02T23:23:56.063Z,101718.03
2023-01-02T23:26:25.843Z,101722.88
2023-01-02T23:29:06.677Z,101723.63
2023-01-02T23:31:39.768Z,101728.31
2023-01-02T23:34:07.869Z,101736.00
2023-01-02T23:36:35.391Z,101732.81
2023-01-02T23:39:02.613Z,101725.81
2023-01-02T23:41:29.649Z,101725.44
2023-01-02T23:43:56.593Z,101720.75
2023-01-02T23:46:23.451Z,101720.69
2023-01-02T23:48:50.482Z,101718.38
2023-01-02T23:51:18.499Z,101716.56
2023-01-02T23:53:45.399Z,101722.03
2023-01-02T23:56:20.022Z,101723.13
2023-01-02T23:58:48.362Z,101716.53
